createdAt,value
2023-04-16T00:00:46.121Z,202.30
2023-04-16T00:01:46.193Z,207.26
2023-04-16T00:02:46.279Z,202.85
2023-04-16T00:03:46.490Z,207.55
2023-04-16T00:04:46.251Z,212.29
2023-04-16T00:05:46.269Z,220.28
2023-04-16T00:06:46.277Z,197.69
2023-04-16T00:07:46.294Z,213.78
2023-04-16T00:08:46.345Z,218.70
2023-04-16T00:09:46.354Z,193.47
2023-04-16T00:10:46.354Z,196.68
2023-04-16T00:11:46.397Z,198.76
2023-04-16T00:12:46.424Z,218.87
2023-04-16T00:13:46.439Z,214.08
2023-04-16T00:14:46.460Z,201.73
2023-04-16T00:15:46.506Z,201.86
2023-04-16T00:16:46.559Z,216.86
2023-04-16T00:17:46.569Z,190.20
2023-04-16T00:18:46.564Z,185.05
2023-04-16T00:19:46.576Z,177.69
2023-04-16T00:20:46.623Z,179.32
2023-04-16T00:21:46.660Z,181.61
2023-04-16T00:22:46.687Z,200.75
2023-04-16T00:23:46.702Z,216.61
2023-04-16T00:24:46.706Z,180.83
2023-04-16T00:25:46.731Z,190.78
2023-04-16T00:26:46.784Z,205.46
2023-04-16T00:27:46.825Z,196.77
2023-04-16T00:28:46.834Z,182.36
2023-04-16T00:29:46.840Z,164.46
2023-04-16T00:30:46.886Z,183.21
2023-04-16T00:31:46.884Z,199.44
2023-04-16T00:32:46.982Z,195.73
2023-04-16T00:33:46.994Z,203.75
2023-04-16T00:34:46.965Z,193.98
2023-04-16T00:35:46.978Z,196.09
2023-04-16T00:36:46.985Z,212.80
2023-04-16T00:37:47.016Z,202.02
2023-04-16T00:38:47.028Z,209.39
2023-04-16T00:39:47.055Z,188.90
2023-04-16T00:40:47.086Z,179.14
2023-04-16T00:41:47.132Z,172.33
2023-04-16T00:42:47.114Z,168.74
2023-04-16T00:43:47.153Z,186.42
2023-04-16T00:44:47.164Z,185.17
2023-04-16T00:45:47.218Z,192.26
2023-04-16T00:46:47.519Z,203.19
2023-04-16T00:47:47.271Z,213.59
2023-04-16T00:48:47.264Z,194.64
2023-04-16T00:49:47.304Z,186.33
2023-04-16T00:50:47.288Z,195.52
2023-04-16T00:51:47.306Z,200.25
2023-04-16T00:52:47.324Z,202.18
2023-04-16T00:53:47.394Z,186.60
2023-04-16T00:54:47.360Z,183.67
2023-04-16T00:55:47.408Z,195.96
2023-04-16T00:56:47.433Z,183.58
2023-04-16T00:57:47.438Z,170.15
2023-04-16T00:58:47.462Z,161.22
2023-04-16T00:59:47.498Z,184.02
2023-04-16T01:00:47.525Z,172.42
2023-04-16T01:01:47.670Z,168.53
2023-04-16T01:02:47.699Z,156.38
2023-04-16T01:03:47.672Z,183.05
2023-04-16T01:04:47.609Z,187.51
2023-04-16T01:05:47.741Z,205.94
2023-04-16T01:06:47.679Z,189.13
2023-04-16T01:07:47.718Z,214.53
2023-04-16T01:08:48.204Z,205.44
2023-04-16T01:09:47.732Z,196.47
2023-04-16T01:10:47.777Z,182.19
2023-04-16T01:11:47.794Z,187.02
2023-04-16T01:12:47.815Z,181.69
2023-04-16T01:13:47.854Z,183.07
2023-04-16T01:14:47.861Z,203.89
2023-04-16T01:15:47.923Z,207.55
2023-04-16T01:16:47.915Z,208.83
2023-04-16T01:17:47.931Z,195.61
2023-04-16T01:18:47.973Z,194.24
2023-04-16T01:19:47.962Z,192.69
2023-04-16T01:20:47.981Z,183.02
2023-04-16T01:21:48.012Z,176.72
2023-04-16T01:22:48.024Z,186.91
2023-04-16T01:23:48.056Z,208.34
2023-04-16T01:24:48.061Z,203.73
2023-04-16T01:25:48.108Z,206.15
2023-04-16T01:26:48.138Z,216.34
2023-04-16T01:27:48.152Z,213.94
2023-04-16T01:28:48.157Z,218.14
2023-04-16T01:29:48.197Z,219.48
2023-04-16T01:30:48.205Z,220.33
2023-04-16T01:31:48.350Z,194.01
2023-04-16T01:32:48.390Z,206.00
2023-04-16T01:33:48.293Z,206.10
2023-04-16T01:34:48.308Z,200.08
2023-04-16T01:35:48.352Z,215.05
2023-04-16T01:36:48.407Z,191.93
2023-04-16T01:37:48.385Z,212.22
2023-04-16T01:38:48.437Z,202.88
2023-04-16T01:39:48.446Z,202.12
2023-04-16T01:40:48.485Z,196.67
2023-04-16T01:41:48.474Z,207.60
2023-04-16T01:42:48.523Z,210.15
2023-04-16T01:43:48.509Z,210.53
2023-04-16T01:44:48.525Z,226.21
2023-04-16T01:45:48.550Z,208.60
2023-04-16T01:46:48.647Z,182.09
2023-04-16T01:47:48.603Z,208.14
2023-04-16T01:48:48.629Z,208.83
2023-04-16T01:49:48.724Z,176.07
2023-04-16T01:50:48.657Z,197.27
2023-04-16T01:51:48.689Z,193.90
2023-04-16T01:52:48.736Z,193.97
2023-04-16T01:53:48.746Z,215.32
2023-04-16T01:54:48.743Z,210.38
2023-04-16T01:55:48.802Z,191.69
2023-04-16T01:56:48.853Z,189.06
2023-04-16T01:57:48.892Z,197.72
2023-04-16T01:58:48.879Z,200.65
2023-04-16T01:59:48.897Z,199.95
2023-04-16T02:00:48.933Z,200.05
2023-04-16T02:01:49.043Z,200.14
2023-04-16T02:02:49.152Z,194.85
2023-04-16T02:03:49.126Z,210.86
2023-04-16T02:04:49.029Z,224.19
2023-04-16T02:05:49.066Z,223.33
2023-04-16T02:06:49.091Z,229.11
2023-04-16T02:07:49.085Z,231.89
2023-04-16T02:08:49.124Z,231.15
2023-04-16T02:09:49.136Z,217.35
2023-04-16T02:10:49.166Z,218.83
2023-04-16T02:11:49.236Z,216.81
2023-04-16T02:12:49.237Z,212.23
2023-04-16T02:13:49.248Z,196.27
2023-04-16T02:14:49.310Z,192.74
2023-04-16T02:15:49.301Z,188.84
2023-04-16T02:16:49.317Z,204.32
2023-04-16T02:17:49.390Z,216.85
2023-04-16T02:18:49.379Z,227.77
2023-04-16T02:19:49.430Z,210.30
2023-04-16T02:20:49.463Z,193.16
2023-04-16T02:21:49.445Z,205.07
2023-04-16T02:22:49.446Z,216.82
2023-04-16T02:23:49.481Z,214.00
2023-04-16T02:24:49.500Z,214.08
2023-04-16T02:25:49.540Z,206.96
2023-04-16T02:26:49.576Z,206.82
2023-04-16T02:27:49.569Z,201.80
2023-04-16T02:28:49.600Z,208.28
2023-04-16T02:29:49.651Z,216.64
2023-04-16T02:30:49.663Z,222.15
2023-04-16T02:31:49.688Z,222.76
2023-04-16T02:32:49.767Z,224.52
2023-04-16T02:33:49.709Z,226.70
2023-04-16T02:34:49.733Z,227.70
2023-04-16T02:35:49.766Z,199.12
2023-04-16T02:36:49.818Z,211.57
2023-04-16T02:37:49.842Z,209.97
2023-04-16T02:38:49.849Z,213.04
2023-04-16T02:39:49.887Z,214.51
2023-04-16T02:40:49.883Z,222.33
2023-04-16T02:41:49.899Z,229.14
2023-04-16T02:42:49.957Z,224.68
2023-04-16T02:43:49.996Z,220.12
2023-04-16T02:44:49.984Z,229.65
2023-04-16T02:45:50.081Z,212.09
2023-04-16T02:46:50.060Z,197.84
2023-04-16T02:47:50.164Z,182.59
2023-04-16T02:48:50.097Z,209.07
2023-04-16T02:49:50.114Z,204.65
2023-04-16T02:50:50.145Z,189.97
2023-04-16T02:51:50.159Z,203.72
2023-04-16T02:52:50.239Z,218.82
2023-04-16T02:53:50.266Z,219.80
2023-04-16T02:54:50.247Z,224.03
2023-04-16T02:55:50.285Z,221.82
2023-04-16T02:56:50.303Z,221.57
2023-04-16T02:57:50.336Z,232.64
2023-04-16T02:58:50.392Z,220.21
2023-04-16T02:59:50.402Z,215.29
2023-04-16T03:00:50.406Z,201.68
2023-04-16T03:01:50.544Z,208.04
2023-04-16T03:02:50.565Z,214.94
2023-04-16T03:03:50.573Z,215.08
2023-04-16T03:04:50.514Z,223.36
2023-04-16T03:05:50.573Z,222.27
2023-04-16T03:06:50.596Z,228.97
2023-04-16T03:07:50.625Z,206.04
2023-04-16T03:08:50.660Z,206.24
2023-04-16T03:09:50.704Z,215.69
2023-04-16T03:10:50.693Z,221.17
2023-04-16T03:11:50.717Z,210.10
2023-04-16T03:12:50.747Z,195.45
2023-04-16T03:13:50.776Z,200.25
2023-04-16T03:14:50.808Z,215.14
2023-04-16T03:15:50.923Z,218.30
2023-04-16T03:16:50.923Z,209.80
2023-04-16T03:17:50.951Z,213.63
2023-04-16T03:18:50.920Z,205.88
2023-04-16T03:19:51.047Z,219.70
2023-04-16T03:20:50.961Z,212.33
2023-04-16T03:21:50.973Z,219.48
2023-04-16T03:22:51.014Z,216.82
2023-04-16T03:23:51.055Z,204.23
2023-04-16T03:24:51.090Z,229.09
2023-04-16T03:25:51.105Z,214.23
2023-04-16T03:26:51.138Z,219.55
2023-04-16T03:27:51.161Z,225.10
2023-04-16T03:28:51.223Z,235.06
2023-04-16T03:29:51.249Z,237.63
2023-04-16T03:30:51.270Z,232.69
2023-04-16T03:31:51.299Z,235.61
2023-04-16T03:32:51.356Z,228.23
2023-04-16T03:33:51.346Z,227.72
2023-04-16T03:34:51.377Z,238.26
2023-04-16T03:35:51.390Z,241.15
2023-04-16T03:36:51.409Z,243.48
2023-04-16T03:37:51.458Z,248.20
2023-04-16T03:38:51.477Z,247.26
2023-04-16T03:39:51.542Z,223.61
2023-04-16T03:40:51.539Z,232.63
2023-04-16T03:41:51.573Z,238.63
2023-04-16T03:42:51.593Z,233.36
2023-04-16T03:43:51.645Z,233.55
2023-04-16T03:44:51.664Z,224.74
2023-04-16T03:45:51.693Z,219.82
2023-04-16T03:46:51.817Z,237.29
2023-04-16T03:47:51.778Z,236.10
2023-04-16T03:48:51.798Z,232.04
2023-04-16T03:49:51.814Z,215.30
2023-04-16T03:50:51.842Z,217.82
2023-04-16T03:51:51.927Z,220.84
2023-04-16T03:52:51.928Z,223.97
2023-04-16T03:53:51.962Z,236.28
2023-04-16T03:54:52.004Z,232.78
2023-04-16T03:55:52.019Z,224.34
2023-04-16T03:56:52.065Z,230.21
2023-04-16T03:57:52.101Z,219.01
2023-04-16T03:58:52.127Z,206.55
2023-04-16T03:59:52.187Z,234.44
2023-04-16T04:00:52.193Z,238.16
2023-04-16T04:01:52.321Z,227.01
2023-04-16T04:02:52.419Z,206.10
2023-04-16T04:03:52.571Z,228.04
2023-04-16T04:04:52.349Z,238.09
2023-04-16T04:05:52.363Z,235.09
2023-04-16T04:06:52.384Z,204.54
2023-04-16T04:07:52.426Z,209.15
2023-04-16T04:08:52.478Z,223.25
2023-04-16T04:09:52.577Z,237.35
2023-04-16T04:10:52.510Z,241.38
2023-04-16T04:11:52.548Z,240.43
2023-04-16T04:12:52.608Z,236.63
2023-04-16T04:13:52.637Z,233.53
2023-04-16T04:14:52.654Z,239.05
2023-04-16T04:15:52.736Z,243.42
2023-04-16T04:16:52.692Z,243.60
2023-04-16T04:17:52.765Z,247.72
2023-04-16T04:18:52.775Z,245.86
2023-04-16T04:20:01.456Z,237.22
2023-04-16T04:20:53.805Z,228.72
2023-04-16T04:21:52.799Z,235.57
2023-04-16T04:22:52.776Z,237.44
2023-04-16T04:23:54.411Z,241.58
2023-04-16T04:24:52.761Z,249.26
2023-04-16T04:25:52.849Z,247.26
2023-04-16T04:26:52.773Z,230.64
2023-04-16T04:27:52.762Z,229.70
2023-04-16T04:28:52.763Z,220.80
2023-04-16T04:29:52.732Z,239.19
2023-04-16T04:30:52.729Z,243.46
2023-04-16T04:31:52.782Z,241.65
2023-04-16T04:32:52.781Z,218.85
2023-04-16T04:33:52.714Z,237.80
2023-04-16T04:34:52.724Z,245.06
2023-04-16T04:35:52.700Z,231.47
2023-04-16T04:36:52.714Z,232.72
2023-04-16T04:37:52.687Z,237.34
2023-04-16T04:38:52.691Z,226.77
2023-04-16T04:39:52.672Z,233.95
2023-04-16T04:40:52.696Z,246.68
2023-04-16T04:41:52.663Z,245.83
2023-04-16T04:42:52.650Z,239.44
2023-04-16T04:43:52.677Z,230.19
2023-04-16T04:44:52.657Z,235.61
2023-04-16T04:45:52.663Z,240.23
2023-04-16T04:46:52.619Z,232.48
2023-04-16T04:47:52.702Z,240.82
2023-04-16T04:48:52.611Z,232.56
2023-04-16T04:49:52.589Z,227.37
2023-04-16T04:50:52.606Z,236.77
2023-04-16T04:51:52.627Z,234.48
2023-04-16T04:52:52.578Z,218.79
2023-04-16T04:53:52.576Z,237.34
2023-04-16T04:54:52.574Z,233.36
2023-04-16T04:55:55.663Z,232.57
2023-04-16T04:56:53.573Z,223.73
2023-04-16T04:57:52.557Z,232.69
2023-04-16T04:58:52.590Z,233.50
2023-04-16T04:59:52.546Z,239.34
2023-04-16T05:00:52.536Z,226.95
2023-04-16T05:01:52.563Z,227.32
2023-04-16T05:02:52.654Z,214.75
2023-04-16T05:03:52.555Z,224.45
2023-04-16T05:04:52.534Z,217.54
2023-04-16T05:05:52.500Z,233.17
2023-04-16T05:06:52.495Z,229.31
2023-04-16T05:07:52.478Z,234.48
2023-04-16T05:08:52.480Z,240.60
2023-04-16T05:09:52.470Z,243.61
2023-04-16T05:10:52.454Z,232.72
2023-04-16T05:11:52.484Z,232.26
2023-04-16T05:12:52.518Z,228.05
2023-04-16T05:13:52.497Z,237.41
2023-04-16T05:14:52.590Z,222.93
2023-04-16T05:15:52.557Z,231.03
2023-04-16T05:16:52.613Z,235.53
2023-04-16T05:17:52.600Z,223.55
2023-04-16T05:18:52.642Z,221.77
2023-04-16T05:19:52.666Z,233.77
2023-04-16T05:20:52.684Z,233.50
2023-04-16T05:21:52.733Z,238.60
2023-04-16T05:22:52.753Z,238.53
2023-04-16T05:23:52.800Z,238.41
2023-04-16T05:24:52.828Z,242.58
2023-04-16T05:25:52.849Z,236.39
2023-04-16T05:26:52.879Z,222.40
2023-04-16T05:27:52.877Z,216.25
2023-04-16T05:28:52.919Z,227.52
2023-04-16T05:29:53.188Z,230.16
2023-04-16T05:30:52.997Z,229.50
2023-04-16T05:31:53.006Z,224.98
2023-04-16T05:32:53.051Z,204.97
2023-04-16T05:33:53.068Z,216.93
2023-04-16T05:34:53.254Z,226.05
2023-04-16T05:35:53.125Z,236.73
2023-04-16T05:36:53.116Z,229.62
2023-04-16T05:37:53.146Z,217.43
2023-04-16T05:38:53.190Z,215.32
2023-04-16T05:39:53.238Z,231.23
2023-04-16T05:40:53.228Z,225.55
2023-04-16T05:41:53.251Z,235.48
2023-04-16T05:42:53.286Z,235.39
2023-04-16T05:43:53.309Z,211.80
2023-04-16T05:44:53.327Z,199.16
2023-04-16T05:45:53.370Z,211.22
2023-04-16T05:46:53.404Z,218.20
2023-04-16T05:47:53.463Z,220.74
2023-04-16T05:48:53.453Z,221.85
2023-04-16T05:49:53.467Z,219.27
2023-04-16T05:50:53.500Z,225.53
2023-04-16T05:51:53.511Z,217.19
2023-04-16T05:52:53.544Z,216.58
2023-04-16T05:53:53.553Z,234.03
2023-04-16T05:54:53.584Z,228.72
2023-04-16T05:55:53.596Z,229.01
2023-04-16T05:56:53.622Z,233.19
2023-04-16T05:57:53.656Z,224.64
2023-04-16T05:58:53.698Z,227.94
2023-04-16T05:59:53.721Z,229.19
2023-04-16T06:00:53.741Z,232.22
2023-04-16T06:01:53.863Z,238.88
2023-04-16T06:02:53.931Z,224.68
2023-04-16T06:03:53.954Z,222.77
2023-04-16T06:04:53.910Z,224.42
2023-04-16T06:05:53.987Z,222.41
2023-04-16T06:06:53.900Z,220.37
2023-04-16T06:07:53.911Z,217.85
2023-04-16T06:08:53.942Z,223.72
2023-04-16T06:09:53.986Z,225.09
2023-04-16T06:10:54.007Z,227.36
2023-04-16T06:11:54.023Z,233.65
2023-04-16T06:12:54.075Z,225.47
2023-04-16T06:13:54.097Z,230.01
2023-04-16T06:14:54.112Z,220.18
2023-04-16T06:15:54.165Z,220.97
2023-04-16T06:16:54.191Z,231.91
2023-04-16T06:17:54.215Z,212.72
2023-04-16T06:18:54.242Z,217.36
2023-04-16T06:19:54.252Z,217.39
2023-04-16T06:20:54.341Z,224.81
2023-04-16T06:21:54.329Z,214.90
2023-04-16T06:22:54.323Z,214.09
2023-04-16T06:23:54.363Z,219.47
2023-04-16T06:24:54.401Z,200.73
2023-04-16T06:25:54.424Z,219.92
2023-04-16T06:26:54.474Z,224.07
2023-04-16T06:27:54.472Z,212.49
2023-04-16T06:28:54.482Z,207.05
2023-04-16T06:29:54.516Z,209.66
2023-04-16T06:30:54.522Z,207.62
2023-04-16T06:31:54.573Z,214.65
2023-04-16T06:32:54.605Z,223.77
2023-04-16T06:33:54.607Z,227.01
2023-04-16T06:34:54.626Z,213.60
2023-04-16T06:35:54.643Z,207.84
2023-04-16T06:36:54.701Z,205.64
2023-04-16T06:37:54.679Z,211.93
2023-04-16T06:38:54.721Z,222.86
2023-04-16T06:39:54.731Z,213.71
2023-04-16T06:40:54.773Z,191.95
2023-04-16T06:41:54.776Z,200.99
2023-04-16T06:42:54.784Z,203.00
2023-04-16T06:43:54.822Z,188.39
2023-04-16T06:44:54.840Z,195.28
2023-04-16T06:45:54.848Z,192.31
2023-04-16T06:46:54.955Z,204.13
2023-04-16T06:47:54.935Z,191.99
2023-04-16T06:48:54.917Z,198.51
2023-04-16T06:49:55.291Z,187.86
2023-04-16T06:50:54.929Z,188.55
2023-04-16T06:51:54.946Z,185.38
2023-04-16T06:52:54.970Z,190.96
2023-04-16T06:53:54.981Z,187.01
2023-04-16T06:54:55.004Z,181.34
2023-04-16T06:55:55.041Z,184.15
2023-04-16T06:56:55.059Z,184.84
2023-04-16T06:57:55.065Z,190.27
2023-04-16T06:58:55.082Z,184.92
2023-04-16T06:59:55.078Z,189.64
2023-04-16T07:00:55.278Z,201.33
2023-04-16T07:01:55.212Z,196.85
2023-04-16T07:02:57.109Z,190.28
2023-04-16T07:03:55.324Z,192.62
2023-04-16T07:04:55.130Z,187.22
2023-04-16T07:05:55.115Z,190.53
2023-04-16T07:06:55.108Z,180.98
2023-04-16T07:07:55.139Z,178.45
2023-04-16T07:08:55.111Z,177.62
2023-04-16T07:09:55.131Z,177.36
2023-04-16T07:10:55.084Z,179.95
2023-04-16T07:11:55.103Z,178.66
2023-04-16T07:12:55.062Z,177.68
2023-04-16T07:13:55.065Z,170.05
2023-04-16T07:14:55.076Z,171.36
2023-04-16T07:15:55.043Z,163.74
2023-04-16T07:16:55.176Z,162.20
2023-04-16T07:17:55.074Z,170.07
2023-04-16T07:18:55.096Z,172.26
2023-04-16T07:19:55.040Z,172.68
2023-04-16T07:20:55.063Z,176.76
2023-04-16T07:21:55.056Z,179.46
2023-04-16T07:22:55.017Z,181.97
2023-04-16T07:23:55.013Z,175.12
2023-04-16T07:24:55.004Z,171.54
2023-04-16T07:25:54.992Z,162.74
2023-04-16T07:26:54.987Z,166.96
2023-04-16T07:27:55.013Z,169.04
2023-04-16T07:28:54.982Z,167.26
2023-04-16T07:29:54.998Z,174.09
2023-04-16T07:30:54.967Z,166.29
2023-04-16T07:31:54.997Z,161.73
2023-04-16T07:32:54.993Z,162.01
2023-04-16T07:33:54.937Z,157.53
2023-04-16T07:34:54.923Z,157.40
2023-04-16T07:35:54.941Z,166.63
2023-04-16T07:36:54.938Z,168.90
2023-04-16T07:37:54.935Z,171.88
2023-04-16T07:38:54.911Z,173.72
2023-04-16T07:39:57.271Z,172.92
2023-04-16T07:40:54.928Z,171.44
2023-04-16T07:41:54.909Z,164.53
2023-04-16T07:42:54.917Z,166.15
2023-04-16T07:43:54.914Z,166.13
2023-04-16T07:44:54.950Z,158.68
2023-04-16T07:45:54.935Z,167.19
2023-04-16T07:46:55.011Z,177.02
2023-04-16T07:47:54.968Z,169.03
2023-04-16T07:48:55.285Z,164.98
2023-04-16T07:49:54.955Z,160.89
2023-04-16T07:50:54.943Z,160.07
2023-04-16T07:51:54.952Z,166.94
2023-04-16T07:52:54.964Z,167.19
2023-04-16T07:53:54.951Z,160.20
2023-04-16T07:54:54.969Z,156.69
2023-04-16T07:55:54.964Z,157.05
2023-04-16T07:56:54.996Z,160.29
2023-04-16T07:57:54.961Z,160.40
2023-04-16T07:58:54.966Z,162.12
2023-04-16T07:59:54.950Z,172.21
2023-04-16T08:00:54.964Z,163.83
2023-04-16T08:01:55.020Z,162.35
2023-04-16T08:02:55.153Z,163.96
2023-04-16T08:03:55.146Z,172.67
2023-04-16T08:04:55.077Z,173.13
2023-04-16T08:05:54.973Z,161.32
2023-04-16T08:06:54.991Z,162.53
2023-04-16T08:07:54.971Z,163.59
2023-04-16T08:08:54.964Z,164.39
2023-04-16T08:09:54.985Z,167.13
2023-04-16T08:10:54.957Z,158.11
2023-04-16T08:11:54.959Z,154.85
2023-04-16T08:12:54.957Z,157.70
2023-04-16T08:13:54.963Z,157.61
2023-04-16T08:14:54.961Z,162.16
2023-04-16T08:15:55.031Z,164.13
2023-04-16T08:16:55.056Z,167.80
2023-04-16T08:17:55.007Z,170.97
2023-04-16T08:18:54.978Z,166.43
2023-04-16T08:19:54.966Z,167.42
2023-04-16T08:20:54.968Z,156.68
2023-04-16T08:21:54.980Z,156.76
2023-04-16T08:22:55.003Z,156.73
2023-04-16T08:23:55.019Z,158.95
2023-04-16T08:24:55.013Z,167.72
2023-04-16T08:25:55.052Z,169.83
2023-04-16T08:26:58.441Z,169.12
2023-04-16T08:27:56.043Z,161.95
2023-04-16T08:28:55.052Z,161.92
2023-04-16T08:29:55.055Z,167.79
2023-04-16T08:30:55.086Z,165.61
2023-04-16T08:31:55.067Z,166.19
2023-04-16T08:32:55.063Z,164.89
2023-04-16T08:33:55.022Z,154.26
2023-04-16T08:34:54.998Z,151.52
2023-04-16T08:35:55.008Z,155.95
2023-04-16T08:36:55.020Z,159.60
2023-04-16T08:37:55.000Z,153.91
2023-04-16T08:38:54.983Z,151.80
2023-04-16T08:39:55.006Z,162.18
2023-04-16T08:40:54.978Z,156.65
2023-04-16T08:41:54.972Z,161.90
2023-04-16T08:42:54.967Z,156.62
2023-04-16T08:43:54.961Z,155.63
2023-04-16T08:44:54.986Z,150.54
2023-04-16T08:45:55.026Z,153.79
2023-04-16T08:46:55.226Z,150.76
2023-04-16T08:47:55.131Z,148.17
2023-04-16T08:48:55.148Z,152.22
2023-04-16T08:49:57.898Z,151.42
2023-04-16T08:50:55.540Z,157.37
2023-04-16T08:51:55.169Z,151.67
2023-04-16T08:52:55.168Z,149.04
2023-04-16T08:53:55.173Z,144.08
2023-04-16T08:54:56.661Z,151.80
2023-04-16T08:55:55.138Z,160.55
2023-04-16T08:56:55.149Z,159.26
2023-04-16T08:57:55.137Z,150.99
2023-04-16T08:58:55.168Z,156.24
2023-04-16T08:59:55.121Z,158.62
2023-04-16T09:00:55.110Z,157.69
2023-04-16T09:01:55.225Z,155.67
2023-04-16T09:02:55.249Z,169.58
2023-04-16T09:03:55.347Z,186.26
2023-04-16T09:04:55.286Z,179.33
2023-04-16T09:05:55.251Z,171.91
2023-04-16T09:06:55.313Z,161.28
2023-04-16T09:07:55.328Z,179.52
2023-04-16T09:08:55.389Z,173.00
2023-04-16T09:09:55.427Z,180.78
2023-04-16T09:10:55.458Z,173.75
2023-04-16T09:11:55.505Z,169.10
2023-04-16T09:12:55.583Z,171.19
2023-04-16T09:13:55.625Z,171.40
2023-04-16T09:14:55.670Z,169.34
2023-04-16T09:15:55.799Z,167.28
2023-04-16T09:16:55.823Z,167.44
2023-04-16T09:17:55.893Z,183.47
2023-04-16T09:18:55.917Z,189.03
2023-04-16T09:19:55.981Z,169.57
2023-04-16T09:20:56.006Z,156.30
2023-04-16T09:21:56.061Z,152.34
2023-04-16T09:22:56.117Z,146.55
2023-04-16T09:23:56.164Z,135.48
2023-04-16T09:24:56.177Z,141.58
2023-04-16T09:25:56.215Z,140.36
2023-04-16T09:26:56.282Z,140.10
2023-04-16T09:27:56.323Z,147.88
2023-04-16T09:28:56.415Z,145.78
2023-04-16T09:29:56.449Z,153.36
2023-04-16T09:30:56.477Z,158.86
2023-04-16T09:31:56.589Z,155.84
2023-04-16T09:32:56.556Z,146.22
2023-04-16T09:33:56.589Z,144.50
2023-04-16T09:34:56.661Z,142.92
2023-04-16T09:35:56.687Z,145.14
2023-04-16T09:36:56.762Z,144.27
2023-04-16T09:37:56.794Z,149.98
2023-04-16T09:38:57.674Z,151.66
2023-04-16T09:39:56.901Z,150.41
2023-04-16T09:40:56.930Z,148.72
2023-04-16T09:41:56.985Z,147.50
2023-04-16T09:42:57.061Z,146.80
2023-04-16T09:43:57.111Z,157.06
2023-04-16T09:44:59.921Z,149.74
2023-04-16T09:45:57.205Z,148.68
2023-04-16T09:46:57.178Z,151.10
2023-04-16T09:47:57.194Z,154.63
2023-04-16T09:48:57.177Z,164.35
2023-04-16T09:49:57.161Z,171.53
2023-04-16T09:50:57.141Z,164.46
2023-04-16T09:51:57.164Z,159.95
2023-04-16T09:52:57.127Z,149.33
2023-04-16T09:53:57.133Z,155.47
2023-04-16T09:54:57.130Z,158.83
2023-04-16T09:55:57.105Z,170.44
2023-04-16T09:56:57.159Z,153.78
2023-04-16T09:57:57.094Z,151.01
2023-04-16T09:58:57.099Z,146.99
2023-04-16T09:59:57.084Z,145.40
2023-04-16T10:00:57.203Z,147.90
2023-04-16T10:02:14.322Z,149.27
2023-04-16T10:02:58.130Z,149.40
2023-04-16T10:03:57.169Z,146.62
2023-04-16T10:04:57.113Z,137.52
2023-04-16T10:05:57.059Z,137.29
2023-04-16T10:06:57.046Z,134.39
2023-04-16T10:07:57.034Z,138.70
2023-04-16T10:08:57.211Z,143.28
2023-04-16T10:09:57.062Z,136.11
2023-04-16T10:10:57.062Z,142.75
2023-04-16T10:11:57.093Z,142.57
2023-04-16T10:12:57.166Z,139.50
2023-04-16T10:13:57.206Z,138.83
2023-04-16T10:14:57.286Z,136.46
2023-04-16T10:15:57.303Z,133.67
2023-04-16T10:16:57.424Z,130.89
2023-04-16T10:17:57.446Z,129.21
2023-04-16T10:18:57.452Z,126.27
2023-04-16T10:19:57.518Z,127.94
2023-04-16T10:20:57.564Z,124.79
2023-04-16T10:21:57.599Z,128.09
2023-04-16T10:22:57.666Z,127.20
2023-04-16T10:23:57.739Z,125.96
2023-04-16T10:24:57.764Z,130.29
2023-04-16T10:25:57.831Z,129.07
2023-04-16T10:26:57.856Z,128.27
2023-04-16T10:27:57.915Z,124.00
2023-04-16T10:28:57.963Z,125.68
2023-04-16T10:29:58.008Z,124.34
2023-04-16T10:30:58.103Z,124.73
2023-04-16T10:31:58.100Z,127.46
2023-04-16T10:33:00.355Z,116.35
2023-04-16T10:33:58.301Z,121.61
2023-04-16T10:34:58.338Z,119.78
2023-04-16T10:36:07.541Z,118.07
2023-04-16T10:36:59.821Z,118.35
2023-04-16T10:37:58.357Z,117.03
2023-04-16T10:38:58.409Z,117.11
2023-04-16T10:39:58.369Z,116.95
2023-04-16T10:40:58.344Z,115.19
2023-04-16T10:41:58.373Z,121.27
2023-04-16T10:42:58.384Z,139.32
2023-04-16T10:43:58.353Z,126.44
2023-04-16T10:44:58.317Z,123.20
2023-04-16T10:45:58.370Z,115.39
2023-04-16T10:46:58.380Z,125.19
2023-04-16T10:47:58.536Z,131.95
2023-04-16T10:48:58.464Z,131.58
2023-04-16T10:49:58.519Z,130.32
2023-04-16T10:50:58.560Z,122.36
2023-04-16T10:51:58.659Z,130.72
2023-04-16T10:52:58.690Z,132.45
2023-04-16T10:53:58.751Z,118.76
2023-04-16T10:54:58.804Z,116.19
2023-04-16T10:55:58.859Z,122.38
2023-04-16T10:56:58.906Z,116.25
2023-04-16T10:57:58.968Z,110.11
2023-04-16T10:58:59.010Z,115.58
2023-04-16T10:59:59.069Z,111.08
2023-04-16T11:00:59.115Z,118.16
2023-04-16T11:01:59.289Z,125.57
2023-04-16T11:02:59.277Z,117.17
2023-04-16T11:03:59.351Z,127.19
2023-04-16T11:04:59.372Z,117.07
2023-04-16T11:05:59.416Z,119.05
2023-04-16T11:06:59.460Z,121.52
2023-04-16T11:07:59.524Z,129.70
2023-04-16T11:08:59.584Z,116.86
2023-04-16T11:09:59.836Z,109.19
2023-04-16T11:10:59.656Z,108.56
2023-04-16T11:11:59.726Z,111.34
2023-04-16T11:12:59.811Z,114.96
2023-04-16T11:13:59.844Z,108.22
2023-04-16T11:14:59.867Z,107.72
2023-04-16T11:15:59.945Z,112.50
2023-04-16T11:16:59.971Z,109.74
2023-04-16T11:18:00.086Z,112.17
2023-04-16T11:19:00.093Z,106.80
2023-04-16T11:20:00.229Z,111.05
2023-04-16T11:21:00.198Z,107.49
2023-04-16T11:22:00.228Z,107.76
2023-04-16T11:23:00.320Z,105.01
2023-04-16T11:24:00.361Z,102.85
2023-04-16T11:25:00.396Z,107.94
2023-04-16T11:26:00.459Z,111.56
2023-04-16T11:27:00.537Z,105.45
2023-04-16T11:28:00.563Z,103.09
2023-04-16T11:29:00.608Z,100.44
2023-04-16T11:30:00.673Z,100.65
2023-04-16T11:31:00.747Z,105.19
2023-04-16T11:32:00.777Z,104.32
2023-04-16T11:33:00.901Z,102.61
2023-04-16T11:34:00.864Z,100.69
2023-04-16T11:35:00.920Z,104.56
2023-04-16T11:36:00.985Z,107.87
2023-04-16T11:37:01.021Z,106.21
2023-04-16T11:38:01.157Z,109.73
2023-04-16T11:39:01.164Z,102.25
2023-04-16T11:40:01.186Z,109.08
2023-04-16T11:41:01.261Z,102.35
2023-04-16T11:42:01.287Z,102.15
2023-04-16T11:43:01.344Z,103.75
2023-04-16T11:44:01.413Z,109.04
2023-04-16T11:45:01.427Z,113.21
2023-04-16T11:46:02.578Z,116.46
2023-04-16T11:47:01.568Z,112.87
2023-04-16T11:48:01.705Z,116.50
2023-04-16T11:49:01.682Z,115.12
2023-04-16T11:50:01.750Z,113.45
2023-04-16T11:51:01.772Z,115.06
2023-04-16T11:52:01.757Z,109.65
2023-04-16T11:53:01.826Z,109.34
2023-04-16T11:54:01.873Z,110.98
2023-04-16T11:55:01.916Z,110.37
2023-04-16T11:56:02.033Z,114.37
2023-04-16T11:57:02.075Z,110.64
2023-04-16T11:58:02.359Z,113.72
2023-04-16T11:59:02.145Z,116.06
2023-04-16T12:00:04.033Z,125.73
2023-04-16T12:01:02.204Z,121.73
2023-04-16T12:02:02.223Z,115.10
2023-04-16T12:03:02.269Z,120.30
2023-04-16T12:04:02.576Z,119.73
2023-04-16T12:05:02.223Z,114.55
2023-04-16T12:06:02.301Z,122.53
2023-04-16T12:07:02.136Z,120.02
2023-04-16T12:08:02.346Z,123.14
2023-04-16T12:09:02.145Z,121.66
2023-04-16T12:10:02.148Z,124.00
2023-04-16T12:11:02.117Z,121.57
2023-04-16T12:12:02.113Z,124.91
2023-04-16T12:13:02.114Z,129.83
2023-04-16T12:14:02.096Z,118.56
2023-04-16T12:15:02.111Z,109.45
2023-04-16T12:16:02.220Z,115.06
2023-04-16T12:17:02.152Z,118.56
2023-04-16T12:18:02.094Z,118.45
2023-04-16T12:19:02.068Z,121.64
2023-04-16T12:20:02.090Z,121.65
2023-04-16T12:21:02.036Z,125.56
2023-04-16T12:22:02.097Z,122.89
2023-04-16T12:23:02.040Z,120.05
2023-04-16T12:24:02.040Z,119.38
2023-04-16T12:25:02.037Z,117.13
2023-04-16T12:26:02.008Z,116.44
2023-04-16T12:27:02.014Z,115.97
2023-04-16T12:28:02.044Z,117.73
2023-04-16T12:29:02.044Z,118.73